createdAt,value
2023-02-28T00:01:29.274Z,-1.70
2023-02-28T00:03:57.327Z,-1.70
2023-02-28T00:06:26.082Z,-1.70
2023-02-28T00:08:55.422Z,-1.70
2023-02-28T00:11:23.671Z,-1.70
2023-02-28T00:13:51.583Z,-1.60
2023-02-28T00:16:21.502Z,-1.70
2023-02-28T00:18:49.567Z,-1.80
2023-02-28T00:21:17.481Z,-1.80
2023-02-28T00:23:45.750Z,-1.80
2023-02-28T00:26:14.942Z,-1.80
2023-02-28T00:28:42.748Z,-1.70
2023-02-28T00:31:10.612Z,-1.80
2023-02-28T00:33:38.481Z,-1.70
2023-02-28T00:36:08.298Z,-1.90
2023-02-28T00:38:36.214Z,-1.80
2023-02-28T00:41:06.020Z,-1.80
2023-02-28T00:43:36.816Z,-1.80
2023-02-28T00:46:05.608Z,-1.90
2023-02-28T00:48:33.509Z,-1.90
2023-02-28T00:51:01.624Z,-1.90
2023-02-28T00:53:29.801Z,-1.90
2023-02-28T00:55:57.621Z,-1.90
2023-02-28T00:58:25.549Z,-1.90
2023-02-28T01:00:55.205Z,-1.90
2023-02-28T01:03:23.450Z,-1.90
2023-02-28T01:05:51.689Z,-2.00
2023-02-28T01:08:19.751Z,-2.00
2023-02-28T01:10:47.589Z,-1.90
2023-02-28T01:13:15.628Z,-1.90
2023-02-28T01:15:47.239Z,-2.00
2023-02-28T01:18:16.374Z,-2.00
2023-02-28T01:20:44.565Z,-2.00
2023-02-28T01:23:12.486Z,-2.00
2023-02-28T01:25:40.526Z,-2.00
2023-02-28T01:28:08.510Z,-2.00
2023-02-28T01:30:36.715Z,-2.00
2023-02-28T01:33:04.620Z,-2.00
2023-02-28T01:35:36.289Z,-2.00
2023-02-28T01:38:20.465Z,-2.00
2023-02-28T01:40:48.949Z,-2.10
2023-02-28T01:43:23.546Z,-2.20
2023-02-28T01:45:51.812Z,-2.20
2023-02-28T01:48:21.156Z,-2.10
2023-02-28T01:50:51.217Z,-2.20
2023-02-28T01:53:21.603Z,-2.20
2023-02-28T01:55:52.871Z,-2.20
2023-02-28T01:58:20.896Z,-2.30
2023-02-28T02:00:48.840Z,-2.30
2023-02-28T02:03:20.777Z,-2.20
2023-02-28T02:05:50.083Z,-2.30
2023-02-28T02:08:21.520Z,-2.30
2023-02-28T02:10:52.096Z,-2.30
2023-02-28T02:13:39.941Z,-2.40
2023-02-28T02:16:16.720Z,-2.30
2023-02-28T02:18:49.251Z,-2.30
2023-02-28T02:21:55.293Z,-2.40
2023-02-28T02:24:50.099Z,-2.40
2023-02-28T02:27:27.972Z,-2.40
2023-02-28T02:30:22.599Z,-2.40
2023-02-28T02:33:19.393Z,-2.40
2023-02-28T02:35:54.421Z,-2.40
2023-02-28T02:38:33.722Z,-2.40
2023-02-28T02:41:08.294Z,-2.40
2023-02-28T02:43:41.031Z,-2.40
2023-02-28T02:46:16.160Z,-2.40
2023-02-28T02:48:46.949Z,-2.50
2023-02-28T02:51:18.548Z,-2.40
2023-02-28T02:53:51.186Z,-2.40
2023-02-28T02:56:22.881Z,-2.40
2023-02-28T02:58:52.916Z,-2.40
2023-02-28T03:01:28.885Z,-2.50
2023-02-28T03:03:59.338Z,-2.50
2023-02-28T03:06:28.705Z,-2.50
2023-02-28T03:08:56.490Z,-2.40
2023-02-28T03:11:24.628Z,-2.50
2023-02-28T03:14:21.118Z,-2.50
2023-02-28T03:17:35.210Z,-2.50
2023-02-28T03:20:26.409Z,-2.50
2023-02-28T03:23:03.887Z,-2.50
2023-02-28T03:25:39.498Z,-2.60
2023-02-28T03:28:13.308Z,-2.50
2023-02-28T03:30:47.774Z,-2.60
2023-02-28T03:33:19.712Z,-2.70
2023-02-28T03:35:52.195Z,-2.60
2023-02-28T03:38:28.881Z,-2.60
2023-02-28T03:41:03.693Z,-2.50
2023-02-28T03:43:35.698Z,-2.50
2023-02-28T03:46:09.075Z,-2.40
2023-02-28T03:48:41.240Z,-2.40
2023-02-28T03:51:11.285Z,-2.50
2023-02-28T03:53:44.540Z,-2.40
2023-02-28T03:56:18.330Z,-2.40
2023-02-28T03:58:53.041Z,-2.40
2023-02-28T04:01:24.577Z,-2.40
2023-02-28T04:03:52.703Z,-2.50
2023-02-28T04:06:23.081Z,-2.60
2023-02-28T04:08:52.892Z,-2.50
2023-02-28T04:11:28.672Z,-2.50
2023-02-28T04:13:56.722Z,-2.40
2023-02-28T04:16:34.390Z,-2.40
2023-02-28T04:19:04.468Z,-2.50
2023-02-28T04:21:33.707Z,-2.40
2023-02-28T04:24:03.054Z,-2.40
2023-02-28T04:26:32.006Z,-2.30
2023-02-28T04:29:00.037Z,-2.30
2023-02-28T04:31:28.640Z,-2.30
2023-02-28T04:33:56.937Z,-2.30
2023-02-28T04:36:24.889Z,-2.40
2023-02-28T04:38:53.041Z,-2.30
2023-02-28T04:41:23.621Z,-2.30
2023-02-28T04:43:52.453Z,-2.20
2023-02-28T04:46:20.836Z,-2.10
2023-02-28T04:48:48.701Z,-2.10
2023-02-28T04:51:18.839Z,-2.10
2023-02-28T04:53:46.844Z,-2.10
2023-02-28T04:56:16.828Z,-2.20
2023-02-28T04:58:46.397Z,-2.20
2023-02-28T05:01:23.936Z,-2.10
2023-02-28T05:03:52.923Z,-2.00
2023-02-28T05:06:22.061Z,-2.10
2023-02-28T05:08:50.087Z,-2.00
2023-02-28T05:11:20.848Z,-1.90
2023-02-28T05:13:50.617Z,-1.80
2023-02-28T05:16:19.553Z,-1.80
2023-02-28T05:18:47.446Z,-1.90
2023-02-28T05:21:30.215Z,-1.80
2023-02-28T05:23:59.269Z,-1.90
2023-02-28T05:26:28.764Z,-1.90
2023-02-28T05:28:58.321Z,-1.80
2023-02-28T05:31:26.171Z,-1.90
2023-02-28T05:33:54.254Z,-1.90
2023-02-28T05:36:22.357Z,-1.80
2023-02-28T05:38:50.494Z,-1.80
2023-02-28T05:41:20.187Z,-1.70
2023-02-28T05:43:48.992Z,-1.70
2023-02-28T05:46:18.533Z,-1.80
2023-02-28T05:48:49.817Z,-1.70
2023-02-28T05:51:18.602Z,-1.70
2023-02-28T05:53:46.444Z,-1.70
2023-02-28T05:56:14.425Z,-1.70
2023-02-28T05:58:42.245Z,-1.80
2023-02-28T06:01:32.240Z,-1.70
2023-02-28T06:04:00.517Z,-1.60
2023-02-28T06:06:28.387Z,-1.70
2023-02-28T06:08:56.174Z,-1.60
2023-02-28T06:11:28.181Z,-1.60
2023-02-28T06:13:57.565Z,-1.70
2023-02-28T06:16:27.269Z,-1.70
2023-02-28T06:18:56.982Z,-1.60
2023-02-28T06:21:25.014Z,-1.60
2023-02-28T06:23:52.908Z,-1.60
2023-02-28T06:26:20.904Z,-1.50
2023-02-28T06:28:49.013Z,-1.60
2023-02-28T06:31:19.038Z,-1.60
2023-02-28T06:33:48.610Z,-1.60
2023-02-28T06:36:18.208Z,-1.60
2023-02-28T06:38:46.486Z,-1.60
2023-02-28T06:41:14.253Z,-1.60
2023-02-28T06:43:43.744Z,-1.60
2023-02-28T06:46:15.508Z,-1.60
2023-02-28T06:48:44.586Z,-1.60
2023-02-28T06:51:15.936Z,-1.50
2023-02-28T06:53:43.778Z,-1.60
2023-02-28T06:56:13.468Z,-1.50
2023-02-28T06:58:41.613Z,-1.50
2023-02-28T07:01:10.727Z,-1.50
2023-02-28T07:03:38.863Z,-1.40
2023-02-28T07:06:07.640Z,-1.50
2023-02-28T07:08:37.673Z,-1.50
2023-02-28T07:11:06.067Z,-1.50
2023-02-28T07:13:34.156Z,-1.40
2023-02-28T07:16:04.931Z,-1.30
2023-02-28T07:18:33.504Z,-1.30
2023-02-28T07:21:04.568Z,-1.30
2023-02-28T07:23:32.473Z,-1.30
2023-02-28T07:26:01.645Z,-1.40
2023-02-28T07:28:29.851Z,-1.30
2023-02-28T07:30:57.624Z,-1.40
2023-02-28T07:33:25.809Z,-1.30
2023-02-28T07:35:53.682Z,-1.40
2023-02-28T07:38:21.446Z,-1.40
2023-02-28T07:40:49.208Z,-1.40
2023-02-28T07:43:18.297Z,-1.40
2023-02-28T07:45:46.041Z,-1.20
2023-02-28T07:48:13.828Z,-1.20
2023-02-28T07:50:41.600Z,-1.10
2023-02-28T07:53:09.476Z,-1.00
2023-02-28T07:55:37.332Z,-0.90
2023-02-28T07:58:05.616Z,-0.90
2023-02-28T08:00:34.841Z,-0.90
2023-02-28T08:03:02.664Z,-0.80
2023-02-28T08:05:31.019Z,-0.80
2023-02-28T08:07:58.818Z,-0.70
2023-02-28T08:10:26.579Z,-0.70
2023-02-28T08:12:54.630Z,-0.70
2023-02-28T08:15:22.383Z,-0.70
2023-02-28T08:17:51.619Z,-0.70
2023-02-28T08:20:19.482Z,-0.80
2023-02-28T08:22:47.254Z,-0.90
2023-02-28T08:25:15.326Z,-1.00
2023-02-28T08:27:43.322Z,-1.00
2023-02-28T08:30:13.653Z,-0.90
2023-02-28T08:32:41.803Z,-1.10
2023-02-28T08:35:11.909Z,-1.10
2023-02-28T08:37:39.668Z,-1.10
2023-02-28T08:40:09.009Z,-1.10
2023-02-28T08:42:37.437Z,-0.90
2023-02-28T08:45:05.994Z,-0.80
2023-02-28T08:47:34.035Z,-0.90
2023-02-28T08:50:01.878Z,-1.10
2023-02-28T08:52:31.008Z,-1.00
2023-02-28T08:54:58.829Z,-0.90
2023-02-28T08:57:29.095Z,-0.70
2023-02-28T08:59:56.890Z,-0.50
2023-02-28T09:02:24.663Z,-0.50
2023-02-28T09:04:52.456Z,-0.40
2023-02-28T09:07:20.384Z,-0.40
2023-02-28T09:09:55.665Z,-0.20
2023-02-28T09:12:24.082Z,-0.20
2023-02-28T09:14:52.411Z,-0.10
2023-02-28T09:17:21.159Z,-0.10
2023-02-28T09:19:50.136Z,0.10
2023-02-28T09:22:18.076Z,0.00
2023-02-28T09:24:46.469Z,-0.10
2023-02-28T09:27:15.592Z,0.00
2023-02-28T09:29:43.361Z,-0.10
2023-02-28T09:32:11.409Z,-0.10
2023-02-28T09:34:39.557Z,-0.10
2023-02-28T09:37:07.434Z,0.00
2023-02-28T09:39:35.265Z,0.20
2023-02-28T09:42:05.105Z,0.20
2023-02-28T09:44:39.384Z,0.30
2023-02-28T09:47:14.639Z,0.10
2023-02-28T09:49:44.727Z,0.10
2023-02-28T09:52:15.621Z,0.40
2023-02-28T09:54:44.003Z,0.50
2023-02-28T09:57:19.800Z,0.40
2023-02-28T10:00:11.188Z,0.20
2023-02-28T10:02:55.657Z,0.50
2023-02-28T10:05:27.359Z,0.50
2023-02-28T10:08:06.029Z,0.40
2023-02-28T10:10:40.329Z,0.30
2023-02-28T10:13:16.685Z,0.20
2023-02-28T10:15:48.425Z,0.30
2023-02-28T10:18:22.874Z,0.40
2023-02-28T10:20:52.609Z,0.80
2023-02-28T10:23:26.067Z,0.80
2023-02-28T10:25:58.844Z,1.00
2023-02-28T10:28:27.987Z,1.00
2023-02-28T10:30:57.652Z,0.90
2023-02-28T10:33:27.339Z,0.60
2023-02-28T10:35:55.523Z,0.80
2023-02-28T10:38:24.911Z,0.60
2023-02-28T10:40:53.567Z,0.80
2023-02-28T10:43:23.373Z,0.80
2023-02-28T10:46:05.993Z,0.80
2023-02-28T10:48:40.183Z,0.60
2023-02-28T10:51:10.328Z,0.60
2023-02-28T10:54:00.016Z,0.50
2023-02-28T10:56:30.542Z,0.60
2023-02-28T10:59:00.515Z,0.80
2023-02-28T11:01:39.537Z,0.80
2023-02-28T11:04:20.553Z,0.90
2023-02-28T11:06:48.984Z,1.30
2023-02-28T11:09:25.146Z,1.30
2023-02-28T11:11:53.860Z,1.60
2023-02-28T11:14:24.118Z,1.70
2023-02-28T11:16:54.079Z,1.50
2023-02-28T11:19:27.232Z,1.70
2023-02-28T11:21:58.821Z,1.70
2023-02-28T11:24:29.873Z,1.50
2023-02-28T11:26:58.570Z,1.60
2023-02-28T11:29:28.137Z,1.50
2023-02-28T11:32:14.574Z,1.40
2023-02-28T11:34:43.602Z,1.60
2023-02-28T11:37:17.102Z,1.50
2023-02-28T11:39:46.244Z,1.50
2023-02-28T11:42:39.276Z,1.40
2023-02-28T11:45:16.677Z,1.60
2023-02-28T11:47:51.747Z,1.90
2023-02-28T11:50:35.240Z,1.90
2023-02-28T11:53:07.780Z,2.00
2023-02-28T11:55:39.910Z,2.10
2023-02-28T11:58:19.910Z,2.40
2023-02-28T12:01:09.206Z,2.60
2023-02-28T12:03:46.773Z,2.80
2023-02-28T12:06:27.684Z,2.50
2023-02-28T12:09:15.648Z,2.40
2023-02-28T12:11:53.038Z,2.40
2023-02-28T12:14:35.113Z,2.60
2023-02-28T12:17:13.083Z,2.90
2023-02-28T12:19:50.898Z,3.00
2023-02-28T12:22:29.811Z,3.10
2023-02-28T12:25:26.109Z,3.20
2023-02-28T12:27:55.045Z,3.40
2023-02-28T12:30:26.789Z,3.10
2023-02-28T12:32:58.718Z,2.90
2023-02-28T12:35:35.538Z,3.20
2023-02-28T12:38:08.538Z,3.60
2023-02-28T12:40:47.007Z,3.60
2023-02-28T12:43:18.285Z,3.60
2023-02-28T12:45:50.429Z,3.70
2023-02-28T12:48:23.818Z,3.80
2023-02-28T12:50:53.501Z,3.70
2023-02-28T12:53:29.845Z,3.70
2023-02-28T12:56:10.160Z,3.80
2023-02-28T12:58:42.025Z,3.80
2023-02-28T13:01:34.565Z,3.80
2023-02-28T13:04:36.829Z,3.70
2023-02-28T13:07:35.115Z,3.40
2023-02-28T13:10:07.239Z,3.40
2023-02-28T13:12:35.634Z,3.30
2023-02-28T13:15:12.289Z,3.50
2023-02-28T13:17:42.078Z,3.40
2023-02-28T13:20:19.837Z,3.40
2023-02-28T13:22:50.748Z,3.40
2023-02-28T13:25:52.161Z,3.30
2023-02-28T13:29:10.296Z,3.40
2023-02-28T13:32:17.428Z,3.40
2023-02-28T13:35:39.997Z,3.40
2023-02-28T13:38:37.370Z,3.40
2023-02-28T13:41:46.310Z,3.60
2023-02-28T13:44:15.873Z,3.40
2023-02-28T13:47:20.748Z,3.30
2023-02-28T13:49:48.600Z,3.40
2023-02-28T13:52:21.913Z,3.40
2023-02-28T13:55:28.922Z,3.50
2023-02-28T13:58:13.701Z,3.50
2023-02-28T14:01:09.265Z,3.40
2023-02-28T14:03:59.630Z,3.50
2023-02-28T14:06:31.134Z,3.40
2023-02-28T14:09:02.057Z,3.40
2023-02-28T14:11:34.397Z,3.40
2023-02-28T14:14:03.419Z,3.40
2023-02-28T14:16:41.944Z,3.40
2023-02-28T14:19:15.158Z,3.30
2023-02-28T14:21:55.520Z,3.30
2023-02-28T14:24:56.824Z,3.50
2023-02-28T14:27:35.685Z,3.70
2023-02-28T14:30:28.546Z,3.90
2023-02-28T14:33:06.700Z,4.00
2023-02-28T14:35:56.643Z,4.00
2023-02-28T14:38:29.143Z,4.10
2023-02-28T14:41:00.320Z,4.00
2023-02-28T14:43:30.606Z,3.80
2023-02-28T14:46:01.637Z,3.80
2023-02-28T14:48:30.284Z,3.80
2023-02-28T14:51:00.508Z,3.90
2023-02-28T14:53:30.975Z,3.80
2023-02-28T14:55:58.797Z,3.70
2023-02-28T14:58:29.808Z,3.80
2023-02-28T15:00:59.487Z,3.90
2023-02-28T15:03:33.412Z,3.90
2023-02-28T15:06:03.151Z,4.00
2023-02-28T15:08:35.974Z,4.10
2023-02-28T15:11:06.965Z,3.90
2023-02-28T15:13:41.320Z,3.90
2023-02-28T15:16:14.059Z,4.00
2023-02-28T15:18:49.011Z,4.10
2023-02-28T15:21:19.266Z,4.70
2023-02-28T15:23:51.626Z,4.70
2023-02-28T15:26:22.847Z,4.50
2023-02-28T15:28:54.604Z,4.40
2023-02-28T15:31:27.847Z,4.50
2023-02-28T15:33:57.425Z,4.60
2023-02-28T15:36:30.869Z,4.40
2023-02-28T15:39:10.477Z,4.90
2023-02-28T15:41:42.237Z,5.00
2023-02-28T15:44:19.492Z,5.10
2023-02-28T15:46:57.287Z,4.70
2023-02-28T15:49:25.549Z,4.70
2023-02-28T15:51:55.571Z,4.20
2023-02-28T15:54:26.969Z,4.70
2023-02-28T15:56:57.332Z,4.60
2023-02-28T15:59:29.256Z,4.20
2023-02-28T16:02:18.739Z,3.90
2023-02-28T16:05:05.115Z,3.60
2023-02-28T16:07:32.923Z,3.50
2023-02-28T16:10:01.312Z,3.30
2023-02-28T16:12:31.337Z,3.20
2023-02-28T16:15:03.763Z,3.20
2023-02-28T16:17:35.371Z,3.00
2023-02-28T16:20:07.641Z,3.00
2023-02-28T16:22:35.553Z,2.90
2023-02-28T16:25:05.105Z,2.90
2023-02-28T16:27:35.173Z,2.90
2023-02-28T16:30:05.332Z,2.80
2023-02-28T16:32:34.013Z,2.80
2023-02-28T16:35:01.952Z,2.80
2023-02-28T16:37:29.928Z,2.70
2023-02-28T16:39:57.707Z,2.70
2023-02-28T16:42:27.398Z,2.60
2023-02-28T16:44:55.692Z,2.60
2023-02-28T16:47:24.897Z,2.50
2023-02-28T16:49:52.808Z,2.50
2023-02-28T16:52:20.738Z,2.50
2023-02-28T16:54:48.603Z,2.30
2023-02-28T16:57:22.456Z,2.30
2023-02-28T16:59:51.586Z,2.30
2023-02-28T17:02:21.237Z,2.20
2023-02-28T17:04:50.545Z,2.30
2023-02-28T17:07:18.730Z,2.20
2023-02-28T17:09:47.207Z,2.10
2023-02-28T17:12:15.358Z,2.10
2023-02-28T17:14:43.168Z,2.00
2023-02-28T17:17:17.577Z,2.00
2023-02-28T17:19:45.415Z,2.00
2023-02-28T17:22:14.698Z,1.90
2023-02-28T17:24:42.479Z,1.90
2023-02-28T17:27:14.239Z,1.90
2023-02-28T17:29:42.597Z,1.80
2023-02-28T17:32:17.963Z,1.90
2023-02-28T17:34:46.967Z,1.90
2023-02-28T17:37:16.441Z,1.90
2023-02-28T17:39:44.419Z,1.90
2023-02-28T17:42:13.104Z,1.90
2023-02-28T17:44:40.898Z,2.00
2023-02-28T17:47:08.696Z,2.00
2023-02-28T17:49:36.525Z,2.00
2023-02-28T17:52:04.631Z,2.10
2023-02-28T17:54:34.235Z,2.10
2023-02-28T17:57:02.376Z,2.10
2023-02-28T17:59:34.213Z,2.10
2023-02-28T18:02:02.198Z,2.10
2023-02-28T18:04:30.291Z,2.20
2023-02-28T18:07:00.807Z,2.20
2023-02-28T18:09:29.475Z,2.20
2023-02-28T18:11:58.730Z,2.10
2023-02-28T18:14:27.187Z,2.10
2023-02-28T18:16:55.837Z,2.10
2023-02-28T18:19:24.335Z,2.20
2023-02-28T18:21:54.439Z,2.20
2023-02-28T18:24:24.734Z,2.20
2023-02-28T18:26:52.903Z,2.20
2023-02-28T18:29:23.929Z,2.30
2023-02-28T18:31:52.768Z,2.20
2023-02-28T18:34:21.338Z,2.20
2023-02-28T18:36:50.823Z,2.20
2023-02-28T18:39:19.672Z,2.20
2023-02-28T18:41:47.551Z,2.30
2023-02-28T18:44:20.683Z,2.30
2023-02-28T18:46:50.929Z,2.30
2023-02-28T18:49:19.604Z,2.30
2023-02-28T18:51:48.015Z,2.20
2023-02-28T18:54:17.164Z,2.30
2023-02-28T18:56:45.400Z,2.30
2023-02-28T18:59:13.699Z,2.20
2023-02-28T19:01:41.539Z,2.30
2023-02-28T19:04:13.775Z,2.30
2023-02-28T19:06:41.991Z,2.30
2023-02-28T19:09:10.284Z,2.30
2023-02-28T19:11:38.252Z,2.30
2023-02-28T19:14:06.104Z,2.30
2023-02-28T19:16:34.344Z,2.20
2023-02-28T19:19:02.279Z,2.30
2023-02-28T19:21:31.471Z,2.30
2023-02-28T19:23:59.481Z,2.20
2023-02-28T19:26:28.164Z,2.20
2023-02-28T19:28:56.688Z,2.20
2023-02-28T19:31:26.727Z,2.20
2023-02-28T19:33:56.241Z,2.20
2023-02-28T19:36:25.929Z,2.20
2023-02-28T19:38:55.223Z,2.20
2023-02-28T19:41:24.208Z,2.20
2023-02-28T19:43:54.226Z,2.10
2023-02-28T19:46:22.113Z,2.10
2023-02-28T19:48:49.943Z,2.10
2023-02-28T19:53:50.614Z,2.20
2023-02-28T19:56:19.900Z,2.20
2023-02-28T19:58:47.775Z,2.10
2023-02-28T20:01:18.723Z,2.10
2023-02-28T20:03:49.076Z,2.00
2023-02-28T20:06:17.121Z,2.00
2023-02-28T20:08:45.300Z,2.00
2023-02-28T20:11:14.990Z,2.00
2023-02-28T20:13:44.945Z,2.00
2023-02-28T20:16:14.446Z,1.90
2023-02-28T20:18:44.011Z,1.90
2023-02-28T20:21:13.120Z,1.90
2023-02-28T20:23:41.791Z,2.00
2023-02-28T20:26:10.089Z,1.90
2023-02-28T20:28:38.609Z,1.90
2023-02-28T20:31:13.714Z,1.90
2023-02-28T20:33:41.781Z,1.90
2023-02-28T20:36:10.127Z,1.90
2023-02-28T20:38:38.372Z,1.90
2023-02-28T20:41:06.944Z,1.80
2023-02-28T20:43:34.788Z,1.80
2023-02-28T20:46:02.976Z,1.80
2023-02-28T20:48:33.619Z,1.90
2023-02-28T20:51:03.233Z,1.80
2023-02-28T20:53:31.425Z,1.80
2023-02-28T20:56:00.848Z,1.80
2023-02-28T20:58:30.364Z,1.90
2023-02-28T21:01:02.097Z,1.90
2023-02-28T21:03:30.030Z,1.90
2023-02-28T21:06:03.336Z,1.90
2023-02-28T21:08:31.385Z,1.70
2023-02-28T21:10:59.207Z,1.70
2023-02-28T21:13:27.658Z,1.80
2023-02-28T21:15:55.539Z,1.80
2023-02-28T21:18:23.371Z,1.80
2023-02-28T21:20:51.178Z,1.80
2023-02-28T21:23:20.284Z,1.80
2023-02-28T21:25:48.037Z,1.80
2023-02-28T21:28:16.311Z,1.80
2023-02-28T21:30:44.111Z,1.70
2023-02-28T21:33:12.485Z,1.70
2023-02-28T21:35:40.421Z,1.70
2023-02-28T21:38:08.202Z,1.80
2023-02-28T21:40:37.364Z,1.70
2023-02-28T21:43:05.253Z,1.70
2023-02-28T21:45:35.327Z,1.70
2023-02-28T21:48:03.164Z,1.70
2023-02-28T21:50:30.988Z,1.60
2023-02-28T21:52:58.842Z,1.70
2023-02-28T21:55:26.642Z,1.60
2023-02-28T21:57:55.936Z,1.70
2023-02-28T22:00:24.128Z,1.70
2023-02-28T22:02:52.232Z,1.70
2023-02-28T22:05:20.182Z,1.80
2023-02-28T22:07:48.499Z,1.70
2023-02-28T22:10:16.340Z,1.70
2023-02-28T22:12:44.269Z,1.70
2023-02-28T22:15:13.634Z,1.60
2023-02-28T22:17:41.462Z,1.60
2023-02-28T22:20:12.606Z,1.60
2023-02-28T22:22:40.612Z,1.70
2023-02-28T22:25:10.176Z,1.60
2023-02-28T22:27:38.001Z,1.60
2023-02-28T22:30:06.607Z,1.60
2023-02-28T22:32:36.744Z,1.70
2023-02-28T22:35:04.803Z,1.70
2023-02-28T22:37:32.629Z,1.70
2023-02-28T22:40:00.430Z,1.70
2023-02-28T22:42:28.245Z,1.70
2023-02-28T22:44:55.989Z,1.60
2023-02-28T22:47:26.363Z,1.60
2023-02-28T22:49:55.496Z,1.60
2023-02-28T22:52:23.236Z,1.60
2023-02-28T22:54:53.121Z,1.60
2023-02-28T22:57:21.117Z,1.60
2023-02-28T22:59:48.887Z,1.50
2023-02-28T23:02:16.745Z,1.60
2023-02-28T23:04:44.541Z,1.60
2023-02-28T23:07:15.069Z,1.60
2023-02-28T23:09:42.915Z,1.60
2023-02-28T23:12:10.873Z,1.50
2023-02-28T23:14:38.652Z,1.50
2023-02-28T23:17:06.815Z,1.50
2023-02-28T23:19:34.621Z,1.50
2023-02-28T23:22:04.429Z,1.50
2023-02-28T23:24:35.467Z,1.50
2023-02-28T23:27:05.282Z,1.50
2023-02-28T23:29:33.496Z,1.60
2023-02-28T23:32:01.561Z,1.60
2023-02-28T23:34:30.327Z,1.60
2023-02-28T23:36:59.898Z,1.60
2023-02-28T23:39:29.106Z,1.60
2023-02-28T23:41:59.793Z,1.60
2023-02-28T23:44:27.586Z,1.70
2023-02-28T23:46:55.648Z,1.60
2023-02-28T23:49:24.032Z,1.60
2023-02-28T23:51:54.226Z,1.60
2023-02-28T23:54:22.291Z,1.60
2023-02-28T23:56:50.047Z,1.70
2023-02-28T23:59:19.228Z,1.60
